createdAt,value
2019-06-01T00:02:17.875Z,17.40
2019-06-01T00:04:45.293Z,17.40
2019-06-01T00:07:13.187Z,17.40
2019-06-01T00:09:41.161Z,17.40
2019-06-01T00:12:08.258Z,17.30
2019-06-01T00:14:35.116Z,17.30
2019-06-01T00:17:02.580Z,17.40
2019-06-01T00:19:29.448Z,17.30
2019-06-01T00:21:56.660Z,17.30
2019-06-01T00:24:24.200Z,17.30
2019-06-01T00:26:52.455Z,17.30
2019-06-01T00:29:19.306Z,17.40
2019-06-01T00:31:47.908Z,17.40
2019-06-01T00:34:15.584Z,17.50
2019-06-01T00:36:43.545Z,17.50
2019-06-01T00:39:10.619Z,17.40
2019-06-01T00:41:38.304Z,17.40
2019-06-01T00:44:05.285Z,17.40
2019-06-01T00:46:33.233Z,17.20
2019-06-01T00:49:00.188Z,17.30
2019-06-01T00:51:28.776Z,17.40
2019-06-01T00:53:55.656Z,17.40
2019-06-01T00:56:23.087Z,17.40
2019-06-01T00:58:50.331Z,17.30
2019-06-01T01:01:17.179Z,17.20
2019-06-01T01:03:46.058Z,17.20
2019-06-01T01:06:13.240Z,17.20
2019-06-01T01:08:41.180Z,17.30
2019-06-01T01:11:09.026Z,17.20
2019-06-01T01:13:37.430Z,17.20
2019-06-01T01:16:05.024Z,17.20
2019-06-01T01:18:32.807Z,17.30
2019-06-01T01:20:59.836Z,17.20
2019-06-01T01:23:27.511Z,17.20
2019-06-01T01:25:55.152Z,17.20
2019-06-01T01:28:24.000Z,17.20
2019-06-01T01:31:03.085Z,17.10
2019-06-01T01:33:22.000Z,17.10
2019-06-01T01:35:49.742Z,17.20
2019-06-01T01:38:16.760Z,17.10
2019-06-01T01:40:44.272Z,17.10
2019-06-01T01:43:11.140Z,17.20
2019-06-01T01:45:38.330Z,17.20
2019-06-01T01:48:05.380Z,17.20
2019-06-01T01:50:32.777Z,17.10
2019-06-01T01:53:00.019Z,17.20
2019-06-01T01:55:27.141Z,17.20
2019-06-01T01:57:55.234Z,17.20
2019-06-01T02:00:36.588Z,17.10
2019-06-01T02:03:04.940Z,17.10
2019-06-01T02:05:32.659Z,17.20
2019-06-01T02:08:01.858Z,17.20
2019-06-01T02:10:29.555Z,17.20
2019-06-01T02:12:57.554Z,17.10
2019-06-01T02:15:25.267Z,17.10
2019-06-01T02:17:52.418Z,17.20
2019-06-01T02:20:22.022Z,17.10
2019-06-01T02:22:49.443Z,17.10
2019-06-01T02:25:18.426Z,17.10
2019-06-01T02:27:45.775Z,17.00
2019-06-01T02:30:14.922Z,17.00
2019-06-01T02:32:42.632Z,16.90
2019-06-01T02:35:10.025Z,17.00
2019-06-01T02:37:38.780Z,17.00
2019-06-01T02:40:07.024Z,17.10
2019-06-01T02:42:34.325Z,17.10
2019-06-01T02:45:02.217Z,17.10
2019-06-01T02:47:30.835Z,17.10
2019-06-01T02:49:59.383Z,16.90
2019-06-01T02:52:26.364Z,16.80
2019-06-01T02:54:55.614Z,16.80
2019-06-01T02:57:23.907Z,16.80
2019-06-01T02:59:51.163Z,16.90
2019-06-01T03:02:19.003Z,17.00
2019-06-01T03:04:47.104Z,17.00
2019-06-01T03:07:15.477Z,16.90
2019-06-01T03:09:43.997Z,16.90
2019-06-01T03:12:12.160Z,16.90
2019-06-01T03:14:42.998Z,17.00
2019-06-01T03:17:13.380Z,17.00
2019-06-01T03:19:44.539Z,16.90
2019-06-01T03:22:14.247Z,16.90
2019-06-01T03:24:44.675Z,16.80
2019-06-01T03:27:14.307Z,16.70
2019-06-01T03:29:46.096Z,16.80
2019-06-01T03:32:33.188Z,16.80
2019-06-01T03:34:42.400Z,16.80
2019-06-01T03:37:10.005Z,16.80
2019-06-01T03:39:38.840Z,16.80
2019-06-01T03:42:07.852Z,16.80
2019-06-01T03:44:35.412Z,16.80
2019-06-01T03:47:03.859Z,16.80
2019-06-01T03:49:31.471Z,16.80
2019-06-01T03:51:58.644Z,16.80
2019-06-01T03:54:25.833Z,16.80
2019-06-01T03:56:53.230Z,16.80
2019-06-01T03:59:20.439Z,16.80
2019-06-01T04:01:47.908Z,16.80
2019-06-01T04:04:14.862Z,16.80
2019-06-01T04:06:42.648Z,16.80
2019-06-01T04:09:10.173Z,16.80
2019-06-01T04:11:37.362Z,16.90
2019-06-01T04:14:05.605Z,16.90
2019-06-01T04:16:33.083Z,16.90
2019-06-01T04:19:01.679Z,16.80
2019-06-01T04:21:29.632Z,16.90
2019-06-01T04:23:57.875Z,16.90
2019-06-01T04:26:25.455Z,16.90
2019-06-01T04:28:52.712Z,16.90
2019-06-01T04:31:20.028Z,16.90
2019-06-01T04:33:47.720Z,16.90
2019-06-01T04:36:15.339Z,16.90
2019-06-01T04:38:42.291Z,17.00
2019-06-01T04:41:11.879Z,16.90
2019-06-01T04:43:38.959Z,17.00
2019-06-01T04:46:06.552Z,16.90
2019-06-01T04:48:35.322Z,16.90
2019-06-01T04:51:03.068Z,16.90
2019-06-01T04:53:30.324Z,17.00
2019-06-01T04:55:57.648Z,17.00
2019-06-01T04:58:24.499Z,17.00
2019-06-01T05:00:52.048Z,17.00
2019-06-01T05:03:19.615Z,16.90
2019-06-01T05:05:47.353Z,16.90
2019-06-01T05:08:15.612Z,17.00
2019-06-01T05:10:43.891Z,17.00
2019-06-01T05:13:11.523Z,17.00
2019-06-01T05:15:39.286Z,17.00
2019-06-01T05:18:07.948Z,17.10
2019-06-01T05:20:35.848Z,17.10
2019-06-01T05:23:03.767Z,17.10
2019-06-01T05:25:32.343Z,17.10
2019-06-01T05:27:59.488Z,17.10
2019-06-01T05:30:26.540Z,17.20
2019-06-01T05:32:54.298Z,17.20
2019-06-01T05:35:22.523Z,17.20
2019-06-01T05:37:49.371Z,17.30
2019-06-01T05:40:16.698Z,17.30
2019-06-01T05:42:43.987Z,17.30
2019-06-01T05:45:11.393Z,17.30
2019-06-01T05:47:38.343Z,17.30
2019-06-01T05:50:06.971Z,17.30
2019-06-01T05:52:34.099Z,17.40
2019-06-01T05:55:01.806Z,17.40
2019-06-01T05:57:28.875Z,17.40
2019-06-01T05:59:56.591Z,17.40
2019-06-01T06:02:24.256Z,17.40
2019-06-01T06:04:54.068Z,17.50
2019-06-01T06:07:21.147Z,17.50
2019-06-01T06:09:48.453Z,17.50
2019-06-01T06:12:17.321Z,17.50
2019-06-01T06:14:44.980Z,17.60
2019-06-01T06:17:14.575Z,17.60
2019-06-01T06:19:41.983Z,17.60
2019-06-01T06:22:09.444Z,17.60
2019-06-01T06:24:36.879Z,17.60
2019-06-01T06:27:04.659Z,17.60
2019-06-01T06:29:32.327Z,17.60
2019-06-01T06:31:59.712Z,17.70
2019-06-01T06:34:26.828Z,17.70
2019-06-01T06:36:54.500Z,17.70
2019-06-01T06:39:24.107Z,17.70
2019-06-01T06:41:52.100Z,17.70
2019-06-01T06:44:20.529Z,17.70
2019-06-01T06:46:48.142Z,17.70
2019-06-01T06:49:15.082Z,17.70
2019-06-01T06:51:42.897Z,17.70
2019-06-01T06:54:14.459Z,17.80
2019-06-01T06:56:40.638Z,17.80
2019-06-01T06:59:11.600Z,17.80
2019-06-01T07:01:37.204Z,17.80
2019-06-01T07:04:12.556Z,17.80
2019-06-01T07:06:35.172Z,17.80
2019-06-01T07:09:02.831Z,17.80
2019-06-01T07:11:31.577Z,17.80
2019-06-01T07:13:58.857Z,17.80
2019-06-01T07:16:25.853Z,17.80
2019-06-01T07:18:53.421Z,17.90
2019-06-01T07:21:22.239Z,17.90
2019-06-01T07:23:49.824Z,17.90
2019-06-01T07:26:16.897Z,17.90
2019-06-01T07:28:44.930Z,17.90
2019-06-01T07:31:11.904Z,17.90
2019-06-01T07:33:40.055Z,17.90
2019-06-01T07:36:07.104Z,17.90
2019-06-01T07:38:34.436Z,17.90
2019-06-01T07:41:01.681Z,18.00
2019-06-01T07:43:28.993Z,18.10
2019-06-01T07:45:56.149Z,18.10
2019-06-01T07:48:24.883Z,18.00
2019-06-01T07:50:52.796Z,18.10
2019-06-01T07:53:21.034Z,18.10
2019-06-01T07:55:48.416Z,18.10
2019-06-01T07:58:15.286Z,18.10
2019-06-01T08:00:43.258Z,18.10
2019-06-01T08:03:10.979Z,18.10
2019-06-01T08:05:38.252Z,18.10
2019-06-01T08:08:05.300Z,18.10
2019-06-01T08:10:33.801Z,18.20
2019-06-01T08:13:01.012Z,18.10
2019-06-01T08:15:29.825Z,18.20
2019-06-01T08:17:57.904Z,18.10
2019-06-01T08:20:26.424Z,18.20
2019-06-01T08:22:53.684Z,18.20
2019-06-01T08:25:20.543Z,18.20
2019-06-01T08:27:47.504Z,18.20
2019-06-01T08:30:16.096Z,18.20
2019-06-01T08:32:43.071Z,18.20
2019-06-01T08:35:11.435Z,18.30
2019-06-01T08:37:39.235Z,18.20
2019-06-01T08:40:07.300Z,18.30
2019-06-01T08:42:35.576Z,18.30
2019-06-01T08:45:03.871Z,18.30
2019-06-01T08:47:31.975Z,18.30
2019-06-01T08:49:59.688Z,18.40
2019-06-01T08:52:28.047Z,18.40
2019-06-01T08:54:55.591Z,18.40
2019-06-01T08:57:24.196Z,18.40
2019-06-01T08:59:51.464Z,18.50
2019-06-01T09:02:19.956Z,18.50
2019-06-01T09:04:47.637Z,18.50
2019-06-01T09:07:15.117Z,18.50
2019-06-01T09:09:43.868Z,18.60
2019-06-01T09:12:10.833Z,18.60
2019-06-01T09:14:38.206Z,18.60
2019-06-01T09:17:05.565Z,18.60
2019-06-01T09:19:33.635Z,18.60
2019-06-01T09:22:00.672Z,18.60
2019-06-01T09:24:29.726Z,18.70
2019-06-01T09:26:57.731Z,18.70
2019-06-01T09:29:25.821Z,18.70
2019-06-01T09:31:53.664Z,18.80
2019-06-01T09:34:21.922Z,18.80
2019-06-01T09:36:48.767Z,18.80
2019-06-01T09:39:16.556Z,18.80
2019-06-01T09:41:43.523Z,18.90
2019-06-01T09:44:10.908Z,18.90
2019-06-01T09:46:38.283Z,18.90
2019-06-01T09:49:05.992Z,18.90
2019-06-01T09:51:35.700Z,19.00
2019-06-01T09:54:03.536Z,19.00
2019-06-01T09:56:31.708Z,19.00
2019-06-01T09:59:00.304Z,19.00
2019-06-01T10:01:28.155Z,19.00
2019-06-01T10:03:55.259Z,19.00
2019-06-01T10:06:22.752Z,19.10
2019-06-01T10:08:51.180Z,19.10
2019-06-01T10:11:18.487Z,19.10
2019-06-01T10:13:46.145Z,19.10
2019-06-01T10:16:14.735Z,19.10
2019-06-01T10:18:42.994Z,19.20
2019-06-01T10:21:10.106Z,19.10
2019-06-01T10:23:38.352Z,19.20
2019-06-01T10:26:05.683Z,19.20
2019-06-01T10:28:33.411Z,19.20
2019-06-01T10:31:01.135Z,19.20
2019-06-01T10:33:28.515Z,19.30
2019-06-01T10:35:55.791Z,19.30
2019-06-01T10:38:23.433Z,19.30
2019-06-01T10:40:50.742Z,19.40
2019-06-01T10:43:18.066Z,19.40
2019-06-01T10:45:45.715Z,19.40
2019-06-01T10:48:12.657Z,19.50
2019-06-01T10:50:40.609Z,19.50
2019-06-01T10:53:08.087Z,19.50
2019-06-01T10:55:36.162Z,19.50
2019-06-01T10:58:03.676Z,19.60
2019-06-01T11:00:38.681Z,19.60
2019-06-01T11:03:00.079Z,19.60
2019-06-01T11:05:27.218Z,19.60
2019-06-01T11:07:54.349Z,19.70
2019-06-01T11:10:21.756Z,19.60
2019-06-01T11:12:49.239Z,19.70
2019-06-01T11:15:17.086Z,19.70
2019-06-01T11:17:44.151Z,19.70
2019-06-01T11:20:11.804Z,19.80
2019-06-01T11:22:41.560Z,19.80
2019-06-01T11:25:09.012Z,19.80
2019-06-01T11:27:37.752Z,19.80
2019-06-01T11:30:06.688Z,19.90
2019-06-01T11:32:35.910Z,19.90
2019-06-01T11:35:05.595Z,19.90
2019-06-01T11:37:34.207Z,19.90
2019-06-01T11:40:01.404Z,20.00
2019-06-01T11:42:28.632Z,20.00
2019-06-01T11:44:56.128Z,20.00
2019-06-01T11:47:23.235Z,20.00
2019-06-01T11:49:51.711Z,20.10
2019-06-01T11:52:19.212Z,20.10
2019-06-01T11:54:47.404Z,20.10
2019-06-01T11:57:15.054Z,20.10
2019-06-01T11:59:43.587Z,20.20
2019-06-01T12:02:11.079Z,20.20
2019-06-01T12:04:38.284Z,20.20
2019-06-01T12:07:17.163Z,20.20
2019-06-01T12:09:35.756Z,20.30
2019-06-01T12:12:02.886Z,20.30
2019-06-01T12:14:29.711Z,20.30
2019-06-01T12:16:57.206Z,20.40
2019-06-01T12:19:24.039Z,20.40
2019-06-01T12:21:51.141Z,20.40
2019-06-01T12:24:25.356Z,20.40
2019-06-01T12:26:49.959Z,20.50
2019-06-01T12:29:17.692Z,20.50
2019-06-01T12:31:46.420Z,20.60
2019-06-01T12:34:13.863Z,20.60
2019-06-01T12:36:42.634Z,20.60
2019-06-01T12:39:11.512Z,20.60
2019-06-01T12:41:39.721Z,20.70
2019-06-01T12:44:11.879Z,20.70
2019-06-01T12:46:40.079Z,20.80
2019-06-01T12:49:07.403Z,20.80
2019-06-01T12:51:36.478Z,20.80
2019-06-01T12:54:04.531Z,20.80
2019-06-01T12:56:32.717Z,20.80
2019-06-01T12:59:00.328Z,20.80
2019-06-01T13:01:29.036Z,20.80
2019-06-01T13:03:56.423Z,20.80
2019-06-01T13:06:23.368Z,20.70
2019-06-01T13:08:51.705Z,20.70
2019-06-01T13:11:19.248Z,20.70
2019-06-01T13:13:47.585Z,20.70
2019-06-01T13:16:15.040Z,20.70
2019-06-01T13:18:45.305Z,20.70
2019-06-01T13:21:12.393Z,20.60
2019-06-01T13:23:41.340Z,20.60
2019-06-01T13:26:09.720Z,20.60
2019-06-01T13:28:38.596Z,20.60
2019-06-01T13:31:06.610Z,20.50
2019-06-01T13:33:33.799Z,20.50
2019-06-01T13:36:00.644Z,20.50
2019-06-01T13:38:29.767Z,20.50
2019-06-01T13:40:56.620Z,20.50
2019-06-01T13:43:23.635Z,20.50
2019-06-01T13:45:52.163Z,20.50
2019-06-01T13:48:19.192Z,20.50
2019-06-01T13:50:47.820Z,20.50
2019-06-01T13:53:14.971Z,20.40
2019-06-01T13:55:43.836Z,20.40
2019-06-01T13:58:11.888Z,20.40
2019-06-01T14:00:38.987Z,20.40
2019-06-01T14:03:06.757Z,20.40
2019-06-01T14:05:34.601Z,20.40
2019-06-01T14:08:02.767Z,20.40
2019-06-01T14:10:29.828Z,20.40
2019-06-01T14:12:57.047Z,20.30
2019-06-01T14:15:24.523Z,20.30
2019-06-01T14:17:52.303Z,20.30
2019-06-01T14:20:19.884Z,20.30
2019-06-01T14:22:48.055Z,20.30
2019-06-01T14:25:15.705Z,20.30
2019-06-01T14:27:43.478Z,20.30
2019-06-01T14:30:14.320Z,20.30
2019-06-01T14:32:42.014Z,20.30
2019-06-01T14:35:09.746Z,20.30
2019-06-01T14:37:37.270Z,20.20
2019-06-01T14:40:04.792Z,20.20
2019-06-01T14:42:32.250Z,20.20
2019-06-01T14:44:59.660Z,20.20
2019-06-01T14:47:26.583Z,20.20
2019-06-01T14:49:54.032Z,20.20
2019-06-01T14:52:21.948Z,20.20
2019-06-01T14:54:50.248Z,20.20
2019-06-01T14:57:17.883Z,20.20
2019-06-01T14:59:45.942Z,20.20
2019-06-01T15:02:12.928Z,20.20
2019-06-01T15:04:40.192Z,20.20
2019-06-01T15:07:07.477Z,20.20
2019-06-01T15:09:34.851Z,20.20
2019-06-01T15:12:01.902Z,20.20
2019-06-01T15:14:29.896Z,20.20
2019-06-01T15:16:57.973Z,20.20
2019-06-01T15:19:25.609Z,20.20
2019-06-01T15:21:54.109Z,20.20
2019-06-01T15:24:22.981Z,20.20
2019-06-01T15:26:52.301Z,20.20
2019-06-01T15:29:19.567Z,20.20
2019-06-01T15:31:47.172Z,20.20
2019-06-01T15:34:15.047Z,20.20
2019-06-01T15:36:42.020Z,20.20
2019-06-01T15:39:23.616Z,20.20
2019-06-01T15:41:39.240Z,20.20
2019-06-01T15:44:06.585Z,20.20
2019-06-01T15:46:33.845Z,20.20
2019-06-01T15:49:01.936Z,20.20
2019-06-01T15:51:29.950Z,20.20
2019-06-01T15:53:57.243Z,20.20
2019-06-01T15:56:24.471Z,20.10
2019-06-01T15:58:54.963Z,20.10
2019-06-01T16:01:21.548Z,20.10
2019-06-01T16:03:48.399Z,20.10
2019-06-01T16:06:16.048Z,20.10
2019-06-01T16:08:43.348Z,20.10
2019-06-01T16:11:11.004Z,20.10
2019-06-01T16:13:38.980Z,20.10
2019-06-01T16:16:08.270Z,20.10
2019-06-01T16:18:37.954Z,20.10
2019-06-01T16:21:06.850Z,20.10
2019-06-01T16:23:49.397Z,20.10
2019-06-01T16:26:15.778Z,20.10
2019-06-01T16:28:40.146Z,20.10
2019-06-01T16:31:10.026Z,20.10
2019-06-01T16:33:39.310Z,20.00
2019-06-01T16:36:09.898Z,20.00
2019-06-01T16:38:38.534Z,20.00
2019-06-01T16:41:09.446Z,20.00
2019-06-01T16:43:37.306Z,20.00
2019-06-01T16:46:05.874Z,20.00
2019-06-01T16:48:33.623Z,20.00
2019-06-01T16:51:01.819Z,20.00
2019-06-01T16:53:30.008Z,20.00
2019-06-01T16:55:58.187Z,20.00
2019-06-01T16:58:25.777Z,20.00
2019-06-01T17:00:53.131Z,20.00
2019-06-01T17:03:20.936Z,20.00
2019-06-01T17:05:47.851Z,20.00
2019-06-01T17:08:15.900Z,20.00
2019-06-01T17:10:43.212Z,20.00
2019-06-01T17:13:10.068Z,20.00
2019-06-01T17:15:38.419Z,20.00
2019-06-01T17:18:09.659Z,20.00
2019-06-01T17:20:40.715Z,20.00
2019-06-01T17:23:24.253Z,20.00
2019-06-01T17:25:36.981Z,20.00
2019-06-01T17:28:05.227Z,20.00
2019-06-01T17:30:32.643Z,20.00
2019-06-01T17:33:02.229Z,19.90
2019-06-01T17:35:29.888Z,19.90
2019-06-01T17:37:58.776Z,19.90
2019-06-01T17:40:36.556Z,19.90
2019-06-01T17:42:55.476Z,19.90
2019-06-01T17:45:23.008Z,19.90
2019-06-01T17:47:51.809Z,19.90
2019-06-01T17:50:20.020Z,19.90
2019-06-01T17:52:46.843Z,19.90
2019-06-01T17:55:31.153Z,19.90
2019-06-01T17:58:01.384Z,19.90
2019-06-01T18:00:30.995Z,19.90
2019-06-01T18:02:58.189Z,19.90
2019-06-01T18:05:26.427Z,20.00
2019-06-01T18:07:54.066Z,19.90
2019-06-01T18:10:22.920Z,19.80
2019-06-01T18:12:49.864Z,19.90
2019-06-01T18:15:17.695Z,19.90
2019-06-01T18:17:46.040Z,19.90
2019-06-01T18:20:13.409Z,19.90
2019-06-01T18:22:41.628Z,19.90
2019-06-01T18:25:11.011Z,19.80
2019-06-01T18:27:39.967Z,19.90
2019-06-01T18:30:08.868Z,19.80
2019-06-01T18:32:37.062Z,19.80
2019-06-01T18:35:05.464Z,19.80
2019-06-01T18:37:33.479Z,19.80
2019-06-01T18:40:01.807Z,19.80
2019-06-01T18:42:29.558Z,19.80
2019-06-01T18:44:57.848Z,19.80
2019-06-01T18:47:32.306Z,19.80
2019-06-01T18:49:55.417Z,19.80
2019-06-01T18:52:23.476Z,19.90
2019-06-01T18:54:50.937Z,19.80
2019-06-01T18:57:21.422Z,19.80
2019-06-01T18:59:47.352Z,19.80
2019-06-01T19:02:14.612Z,19.80
2019-06-01T19:04:45.087Z,19.80
2019-06-01T19:07:13.376Z,19.80
2019-06-01T19:09:41.351Z,19.80
2019-06-01T19:12:08.929Z,19.80
2019-06-01T19:14:36.280Z,19.80
2019-06-01T19:17:03.453Z,19.80
2019-06-01T19:19:30.622Z,19.80
2019-06-01T19:21:57.771Z,19.80
2019-06-01T19:24:26.116Z,19.80
2019-06-01T19:26:53.964Z,19.80
2019-06-01T19:29:22.596Z,19.80
2019-06-01T19:31:50.556Z,19.80
2019-06-01T19:34:18.217Z,19.80
2019-06-01T19:36:46.256Z,19.80
2019-06-01T19:39:13.381Z,19.70
2019-06-01T19:41:45.252Z,19.70
2019-06-01T19:44:11.467Z,19.70
2019-06-01T19:46:39.104Z,19.70
2019-06-01T19:49:06.358Z,19.70
2019-06-01T19:51:34.152Z,19.70
2019-06-01T19:54:01.623Z,19.70
2019-06-01T19:56:28.684Z,19.70
2019-06-01T19:58:56.215Z,19.70
2019-06-01T20:01:24.339Z,19.70
2019-06-01T20:03:52.072Z,19.70
2019-06-01T20:06:18.986Z,19.70
2019-06-01T20:08:46.511Z,19.70
2019-06-01T20:11:15.103Z,19.70
2019-06-01T20:13:42.567Z,19.70
2019-06-01T20:16:10.717Z,19.70
2019-06-01T20:18:38.607Z,19.70
2019-06-01T20:21:07.236Z,19.70
2019-06-01T20:23:34.147Z,19.70
2019-06-01T20:26:01.808Z,19.60
2019-06-01T20:28:29.420Z,19.60
2019-06-01T20:30:57.252Z,19.60
2019-06-01T20:33:24.671Z,19.60
2019-06-01T20:35:53.775Z,19.60
2019-06-01T20:38:23.041Z,19.60
2019-06-01T20:40:50.681Z,19.60
2019-06-01T20:43:18.800Z,19.60
2019-06-01T20:45:46.706Z,19.60
2019-06-01T20:48:14.998Z,19.60
2019-06-01T20:50:42.320Z,19.60
2019-06-01T20:53:10.004Z,19.50
2019-06-01T20:55:38.744Z,19.50
2019-06-01T20:58:06.030Z,19.50
2019-06-01T21:00:33.356Z,19.50
2019-06-01T21:03:01.022Z,19.50
2019-06-01T21:05:29.291Z,19.50
2019-06-01T21:07:57.836Z,19.50
2019-06-01T21:10:25.440Z,19.50
2019-06-01T21:12:52.536Z,19.50
2019-06-01T21:15:21.324Z,19.50
2019-06-01T21:17:50.178Z,19.50
2019-06-01T21:20:23.313Z,19.50
2019-06-01T21:22:46.331Z,19.50
2019-06-01T21:25:14.765Z,19.50
2019-06-01T21:27:43.056Z,19.50
2019-06-01T21:30:10.857Z,19.50
2019-06-01T21:32:37.912Z,19.40
2019-06-01T21:35:05.672Z,19.40
2019-06-01T21:37:32.760Z,19.40
2019-06-01T21:40:02.262Z,19.40
2019-06-01T21:42:29.144Z,19.40
2019-06-01T21:44:56.905Z,19.30
2019-06-01T21:47:25.862Z,19.30
2019-06-01T21:49:55.293Z,19.30
2019-06-01T21:52:22.612Z,19.30
2019-06-01T21:54:51.600Z,19.30
2019-06-01T21:57:20.161Z,19.30
2019-06-01T21:59:48.235Z,19.30
2019-06-01T22:02:16.746Z,19.30
2019-06-01T22:04:44.349Z,19.30
2019-06-01T22:07:11.808Z,19.20
2019-06-01T22:09:39.191Z,19.30
2019-06-01T22:12:06.189Z,19.30
2019-06-01T22:14:33.366Z,19.30
2019-06-01T22:17:00.708Z,19.30
2019-06-01T22:19:28.168Z,19.30
2019-06-01T22:21:55.813Z,19.30
2019-06-01T22:24:23.851Z,19.30
2019-06-01T22:26:51.183Z,19.30
2019-06-01T22:29:18.476Z,19.30
2019-06-01T22:31:45.556Z,19.30
2019-06-01T22:34:13.871Z,19.20
2019-06-01T22:36:41.267Z,19.20
2019-06-01T22:39:09.168Z,19.20
2019-06-01T22:41:36.504Z,19.20
2019-06-01T22:44:03.756Z,19.20
2019-06-01T22:46:32.777Z,19.20
2019-06-01T22:48:59.816Z,19.20
2019-06-01T22:51:27.120Z,19.10
2019-06-01T22:53:54.487Z,19.10
2019-06-01T22:56:21.462Z,19.10
2019-06-01T22:58:48.279Z,19.10
2019-06-01T23:01:15.480Z,19.10
2019-06-01T23:03:43.214Z,19.00
2019-06-01T23:06:10.568Z,19.10
2019-06-01T23:08:37.702Z,19.00
2019-06-01T23:11:04.973Z,19.00
2019-06-01T23:13:32.607Z,19.00
2019-06-01T23:15:59.563Z,18.90
2019-06-01T23:18:27.940Z,19.00
2019-06-01T23:20:55.189Z,19.00
2019-06-01T23:23:23.885Z,19.00
2019-06-01T23:25:51.488Z,18.90
2019-06-01T23:28:19.013Z,19.00
2019-06-01T23:30:46.364Z,19.00
2019-06-01T23:33:13.299Z,18.90
2019-06-01T23:35:40.464Z,19.00
2019-06-01T23:38:07.585Z,18.90
2019-06-01T23:40:34.531Z,18.90
2019-06-01T23:43:01.622Z,18.90
2019-06-01T23:45:29.185Z,18.90
2019-06-01T23:47:56.335Z,19.00
2019-06-01T23:50:23.215Z,18.90
2019-06-01T23:52:50.670Z,18.90
2019-06-01T23:55:18.085Z,18.90
2019-06-01T23:57:45.323Z,18.90
